KGPT/GPT METAR and TAF weather

Enter ICAO airport designator
Station Type Date Time Source
KGPT METAR 2023/01/30 11:53 UTC NOAA

KGPT 301153Z 21004KT 1/2SM FG VV002 19/18 A3009 RMK AO2 SLP190 70038 T01890183 10189 20172 53007 RVRNO


Station Type Date Time Source
KGPT Decoded METAR 2023/01/30 11:53 UTC NOAA

GULFPORT-BILOXI REG AIRPORT , MS, United States (KGPT) 30-25N 089-05W 14M
Jan 30, 2023 - 06:53 AM EST / 2023.01.30 1153 UTC
Wind: from the SSW (210 degrees) at 5 MPH (4 KT):0
Visibility: 1/2 mile(s):0
Sky conditions: obscured
Weather: fog
Temperature: 66.0 F (18.9 C)
Dew Point: 64.9 F (18.3 C)
Relative Humidity: 96%
Pressure (altimeter): 30.09 in. Hg (1018 hPa)
Pressure tendency: 0.02 inches (0.7 hPa) higher than three hours ago
ob: KGPT 301153Z 21004KT 1/2SM FG VV002 19/18 A3009 RMK AO2 SLP190 70038 T01890183 10189 20172 53007 RVRNO
cycle: 12

Station Type Date Time Source
KGPT TAF 2023/01/30 12:40 UTC NOAA

TAF KGPT 301138Z 3012/3112 21005KT 1/2SM FG OVC002
FM301800 22005KT 5SM BR OVC010
FM310300 00000KT 3SM BR OVC005
FM310500 VRB03KT 1/2SM FG OVC002

Example: see airport list